sensor_id;sensor_type;location;lat;lon;timestamp;P1;durP1;ratioP1;P2;durP2;ratioP2
727;SDS011;347;48.780;9.158;2022-07-24T00:01:34;20.83;;;19.43;;
727;SDS011;347;48.780;9.158;2022-07-24T00:04:01;19.83;;;18.60;;
727;SDS011;347;48.780;9.158;2022-07-24T00:06:27;20.73;;;19.53;;
727;SDS011;347;48.780;9.158;2022-07-24T00:08:53;19.93;;;18.77;;
727;SDS011;347;48.780;9.158;2022-07-24T00:11:19;19.57;;;18.50;;
727;SDS011;347;48.780;9.158;2022-07-24T00:13:45;21.13;;;19.97;;
727;SDS011;347;48.780;9.158;2022-07-24T00:16:10;22.60;;;21.40;;
727;SDS011;347;48.780;9.158;2022-07-24T00:18:36;21.77;;;20.67;;
727;SDS011;347;48.780;9.158;2022-07-24T00:21:02;20.83;;;19.73;;
727;SDS011;347;48.780;9.158;2022-07-24T00:23:28;21.60;;;20.60;;
727;SDS011;347;48.780;9.158;2022-07-24T00:25:54;22.83;;;21.50;;
727;SDS011;347;48.780;9.158;2022-07-24T00:28:20;21.13;;;19.93;;
727;SDS011;347;48.780;9.158;2022-07-24T00:30:46;20.20;;;19.00;;
727;SDS011;347;48.780;9.158;2022-07-24T00:33:12;21.27;;;20.07;;
727;SDS011;347;48.780;9.158;2022-07-24T00:35:38;23.13;;;21.80;;
727;SDS011;347;48.780;9.158;2022-07-24T00:38:04;20.60;;;19.50;;
727;SDS011;347;48.780;9.158;2022-07-24T00:40:29;22.50;;;21.30;;
727;SDS011;347;48.780;9.158;2022-07-24T00:42:56;20.13;;;19.03;;
727;SDS011;347;48.780;9.158;2022-07-24T00:45:22;19.83;;;18.87;;
727;SDS011;347;48.780;9.158;2022-07-24T00:47:49;20.07;;;19.07;;
727;SDS011;347;48.780;9.158;2022-07-24T00:50:15;21.43;;;20.17;;
727;SDS011;347;48.780;9.158;2022-07-24T00:52:42;22.67;;;21.47;;
727;SDS011;347;48.780;9.158;2022-07-24T00:55:09;20.60;;;19.50;;
727;SDS011;347;48.780;9.158;2022-07-24T00:57:36;20.43;;;19.23;;
727;SDS011;347;48.780;9.158;2022-07-24T01:00:03;21.83;;;20.17;;
727;SDS011;347;48.780;9.158;2022-07-24T01:02:33;22.57;;;21.03;;
727;SDS011;347;48.780;9.158;2022-07-24T01:04:59;22.10;;;21.00;;
727;SDS011;347;48.780;9.158;2022-07-24T01:07:25;20.90;;;19.80;;
727;SDS011;347;48.780;9.158;2022-07-24T01:09:51;21.33;;;20.20;;
727;SDS011;347;48.780;9.158;2022-07-24T01:12:17;22.93;;;21.73;;
727;SDS011;347;48.780;9.158;2022-07-24T01:14:43;22.97;;;21.47;;
727;SDS011;347;48.780;9.158;2022-07-24T01:17:09;21.70;;;20.60;;
727;SDS011;347;48.780;9.158;2022-07-24T01:19:35;21.47;;;20.27;;
727;SDS011;347;48.780;9.158;2022-07-24T01:22:01;21.60;;;20.40;;
727;SDS011;347;48.780;9.158;2022-07-24T01:24:27;21.10;;;20.00;;
727;SDS011;347;48.780;9.158;2022-07-24T01:26:53;21.63;;;20.37;;
727;SDS011;347;48.780;9.158;2022-07-24T01:29:19;21.93;;;20.40;;
727;SDS011;347;48.780;9.158;2022-07-24T01:31:45;20.73;;;19.53;;
727;SDS011;347;48.780;9.158;2022-07-24T01:34:11;21.83;;;20.63;;
727;SDS011;347;48.780;9.158;2022-07-24T01:36:37;22.07;;;20.77;;
727;SDS011;347;48.780;9.158;2022-07-24T01:39:02;22.90;;;21.80;;
727;SDS011;347;48.780;9.158;2022-07-24T01:41:28;23.13;;;21.83;;
727;SDS011;347;48.780;9.158;2022-07-24T01:43:57;23.63;;;22.17;;
727;SDS011;347;48.780;9.158;2022-07-24T01:46:23;23.07;;;21.67;;
727;SDS011;347;48.780;9.158;2022-07-24T01:48:49;23.20;;;21.90;;
727;SDS011;347;48.780;9.158;2022-07-24T01:51:15;25.50;;;23.90;;
727;SDS011;347;48.780;9.158;2022-07-24T01:53:41;23.23;;;21.63;;
727;SDS011;347;48.780;9.158;2022-07-24T01:56:06;24.40;;;22.97;;
727;SDS011;347;48.780;9.158;2022-07-24T01:58:32;24.80;;;22.93;;
727;SDS011;347;48.780;9.158;2022-07-24T02:00:58;22.30;;;20.80;;
727;SDS011;347;48.780;9.158;2022-07-24T02:03:24;23.43;;;22.13;;
727;SDS011;347;48.780;9.158;2022-07-24T02:05:49;21.60;;;20.20;;
727;SDS011;347;48.780;9.158;2022-07-24T02:08:15;23.20;;;21.80;;
727;SDS011;347;48.780;9.158;2022-07-24T02:10:41;23.93;;;22.63;;
727;SDS011;347;48.780;9.158;2022-07-24T02:13:06;24.30;;;22.77;;
727;SDS011;347;48.780;9.158;2022-07-24T02:15:33;23.27;;;21.90;;
727;SDS011;347;48.780;9.158;2022-07-24T02:17:59;23.60;;;22.10;;
727;SDS011;347;48.780;9.158;2022-07-24T02:20:26;24.00;;;22.60;;
727;SDS011;347;48.780;9.158;2022-07-24T02:22:53;25.43;;;24.03;;
727;SDS011;347;48.780;9.158;2022-07-24T02:25:19;24.90;;;23.37;;
727;SDS011;347;48.780;9.158;2022-07-24T02:27:44;24.17;;;22.77;;
727;SDS011;347;48.780;9.158;2022-07-24T02:30:14;27.37;;;25.87;;
727;SDS011;347;48.780;9.158;2022-07-24T02:32:41;26.63;;;25.23;;
727;SDS011;347;48.780;9.158;2022-07-24T02:35:07;25.23;;;23.70;;
727;SDS011;347;48.780;9.158;2022-07-24T02:37:40;26.90;;;25.20;;
727;SDS011;347;48.780;9.158;2022-07-24T02:40:07;27.87;;;26.30;;
727;SDS011;347;48.780;9.158;2022-07-24T02:42:35;25.97;;;24.37;;
727;SDS011;347;48.780;9.158;2022-07-24T02:45:01;25.37;;;23.77;;
727;SDS011;347;48.780;9.158;2022-07-24T02:47:28;25.60;;;24.20;;
727;SDS011;347;48.780;9.158;2022-07-24T02:49:54;24.53;;;22.93;;
727;SDS011;347;48.780;9.158;2022-07-24T02:52:20;25.10;;;23.80;;
727;SDS011;347;48.780;9.158;2022-07-24T02:54:45;21.93;;;20.63;;
727;SDS011;347;48.780;9.158;2022-07-24T02:57:11;24.30;;;22.90;;
727;SDS011;347;48.780;9.158;2022-07-24T02:59:37;24.50;;;23.10;;
727;SDS011;347;48.780;9.158;2022-07-24T03:02:03;24.77;;;23.43;;
727;SDS011;347;48.780;9.158;2022-07-24T03:04:29;24.37;;;23.00;;
727;SDS011;347;48.780;9.158;2022-07-24T03:06:54;26.27;;;24.87;;
727;SDS011;347;48.780;9.158;2022-07-24T03:09:20;24.30;;;22.70;;
727;SDS011;347;48.780;9.158;2022-07-24T03:11:46;23.67;;;22.07;;
727;SDS011;347;48.780;9.158;2022-07-24T03:14:12;24.67;;;22.97;;
727;SDS011;347;48.780;9.158;2022-07-24T03:16:37;24.43;;;23.10;;
727;SDS011;347;48.780;9.158;2022-07-24T03:19:03;24.13;;;22.93;;
727;SDS011;347;48.780;9.158;2022-07-24T03:21:29;24.67;;;23.23;;
727;SDS011;347;48.780;9.158;2022-07-24T03:23:54;23.90;;;22.60;;
727;SDS011;347;48.780;9.158;2022-07-24T03:26:20;24.37;;;22.77;;
727;SDS011;347;48.780;9.158;2022-07-24T03:28:46;23.63;;;22.27;;
727;SDS011;347;48.780;9.158;2022-07-24T03:31:11;26.80;;;25.17;;
727;SDS011;347;48.780;9.158;2022-07-24T03:33:37;25.90;;;24.30;;
727;SDS011;347;48.780;9.158;2022-07-24T03:36:03;24.83;;;23.33;;
727;SDS011;347;48.780;9.158;2022-07-24T03:38:29;23.00;;;21.57;;
727;SDS011;347;48.780;9.158;2022-07-24T03:40:54;23.63;;;22.20;;
727;SDS011;347;48.780;9.158;2022-07-24T03:43:20;24.57;;;23.10;;
727;SDS011;347;48.780;9.158;2022-07-24T03:45:46;27.73;;;25.93;;
727;SDS011;347;48.780;9.158;2022-07-24T03:48:11;22.70;;;21.30;;
727;SDS011;347;48.780;9.158;2022-07-24T03:50:37;26.73;;;25.23;;
727;SDS011;347;48.780;9.158;2022-07-24T03:53:03;26.70;;;25.17;;
727;SDS011;347;48.780;9.158;2022-07-24T03:55:29;23.83;;;22.47;;
727;SDS011;347;48.780;9.158;2022-07-24T03:57:54;23.83;;;22.33;;
727;SDS011;347;48.780;9.158;2022-07-24T04:00:20;25.17;;;23.47;;
727;SDS011;347;48.780;9.158;2022-07-24T04:02:46;27.73;;;26.27;;
727;SDS011;347;48.780;9.158;2022-07-24T04:05:11;24.67;;;23.10;;
727;SDS011;347;48.780;9.158;2022-07-24T04:07:38;26.40;;;24.60;;
727;SDS011;347;48.780;9.158;2022-07-24T04:10:05;27.30;;;25.90;;
727;SDS011;347;48.780;9.158;2022-07-24T04:12:32;26.70;;;25.30;;
727;SDS011;347;48.780;9.158;2022-07-24T04:14:58;27.57;;;26.13;;
727;SDS011;347;48.780;9.158;2022-07-24T04:17:24;24.60;;;23.20;;
727;SDS011;347;48.780;9.158;2022-07-24T04:19:49;25.20;;;23.70;;
727;SDS011;347;48.780;9.158;2022-07-24T04:22:15;27.30;;;25.80;;
727;SDS011;347;48.780;9.158;2022-07-24T04:24:41;25.03;;;23.43;;
727;SDS011;347;48.780;9.158;2022-07-24T04:27:07;25.00;;;23.63;;
727;SDS011;347;48.780;9.158;2022-07-24T04:29:33;25.83;;;24.00;;
727;SDS011;347;48.780;9.158;2022-07-24T04:31:58;24.50;;;22.90;;
727;SDS011;347;48.780;9.158;2022-07-24T04:34:24;25.17;;;23.67;;
727;SDS011;347;48.780;9.158;2022-07-24T04:36:50;24.37;;;22.90;;
727;SDS011;347;48.780;9.158;2022-07-24T04:39:15;24.87;;;23.37;;
727;SDS011;347;48.780;9.158;2022-07-24T04:41:41;23.53;;;22.17;;
727;SDS011;347;48.780;9.158;2022-07-24T04:44:07;24.87;;;23.57;;
727;SDS011;347;48.780;9.158;2022-07-24T04:46:33;26.00;;;24.60;;
727;SDS011;347;48.780;9.158;2022-07-24T04:48:58;24.50;;;23.20;;
727;SDS011;347;48.780;9.158;2022-07-24T04:51:25;26.13;;;24.73;;
727;SDS011;347;48.780;9.158;2022-07-24T04:53:50;24.53;;;23.10;;
727;SDS011;347;48.780;9.158;2022-07-24T04:56:18;26.47;;;25.07;;
727;SDS011;347;48.780;9.158;2022-07-24T04:58:47;24.50;;;23.17;;
727;SDS011;347;48.780;9.158;2022-07-24T05:01:13;25.50;;;24.20;;
727;SDS011;347;48.780;9.158;2022-07-24T05:03:39;24.60;;;23.10;;
727;SDS011;347;48.780;9.158;2022-07-24T05:06:06;23.10;;;21.80;;
727;SDS011;347;48.780;9.158;2022-07-24T05:08:32;24.87;;;23.67;;
727;SDS011;347;48.780;9.158;2022-07-24T05:11:00;24.17;;;22.53;;
727;SDS011;347;48.780;9.158;2022-07-24T05:13:26;25.70;;;24.30;;
727;SDS011;347;48.780;9.158;2022-07-24T05:15:51;26.50;;;25.00;;
727;SDS011;347;48.780;9.158;2022-07-24T05:18:17;24.40;;;23.00;;
727;SDS011;347;48.780;9.158;2022-07-24T05:20:44;23.87;;;22.57;;
727;SDS011;347;48.780;9.158;2022-07-24T05:23:09;25.70;;;24.30;;
727;SDS011;347;48.780;9.158;2022-07-24T05:25:35;25.50;;;24.23;;
727;SDS011;347;48.780;9.158;2022-07-24T05:28:01;24.87;;;23.57;;
727;SDS011;347;48.780;9.158;2022-07-24T05:30:26;22.90;;;21.60;;
727;SDS011;347;48.780;9.158;2022-07-24T05:32:52;24.80;;;22.90;;
727;SDS011;347;48.780;9.158;2022-07-24T05:35:18;25.97;;;24.60;;
727;SDS011;347;48.780;9.158;2022-07-24T05:37:44;23.20;;;21.47;;
727;SDS011;347;48.780;9.158;2022-07-24T05:40:10;23.80;;;22.50;;
727;SDS011;347;48.780;9.158;2022-07-24T05:42:36;25.53;;;24.23;;
727;SDS011;347;48.780;9.158;2022-07-24T05:45:02;23.40;;;22.00;;
727;SDS011;347;48.780;9.158;2022-07-24T05:47:34;23.73;;;22.50;;
727;SDS011;347;48.780;9.158;2022-07-24T05:50:01;24.20;;;22.70;;
727;SDS011;347;48.780;9.158;2022-07-24T05:52:26;22.37;;;21.10;;
727;SDS011;347;48.780;9.158;2022-07-24T05:54:52;23.97;;;22.20;;
727;SDS011;347;48.780;9.158;2022-07-24T05:57:18;24.83;;;23.50;;
727;SDS011;347;48.780;9.158;2022-07-24T05:59:44;25.17;;;23.90;;
727;SDS011;347;48.780;9.158;2022-07-24T06:02:09;22.97;;;21.67;;
727;SDS011;347;48.780;9.158;2022-07-24T06:04:35;23.67;;;21.90;;
727;SDS011;347;48.780;9.158;2022-07-24T06:07:07;21.87;;;20.57;;
727;SDS011;347;48.780;9.158;2022-07-24T06:09:34;23.40;;;22.00;;
727;SDS011;347;48.780;9.158;2022-07-24T06:12:01;23.20;;;22.00;;
727;SDS011;347;48.780;9.158;2022-07-24T06:14:27;23.00;;;21.70;;
727;SDS011;347;48.780;9.158;2022-07-24T06:16:53;23.10;;;21.60;;
727;SDS011;347;48.780;9.158;2022-07-24T06:19:19;22.00;;;20.70;;
727;SDS011;347;48.780;9.158;2022-07-24T06:21:47;22.77;;;21.27;;
727;SDS011;347;48.780;9.158;2022-07-24T06:24:21;23.80;;;22.60;;
727;SDS011;347;48.780;9.158;2022-07-24T06:26:49;23.90;;;22.80;;
727;SDS011;347;48.780;9.158;2022-07-24T06:29:18;22.70;;;21.30;;
727;SDS011;347;48.780;9.158;2022-07-24T06:31:44;22.20;;;21.00;;
727;SDS011;347;48.780;9.158;2022-07-24T06:34:10;22.93;;;21.50;;
727;SDS011;347;48.780;9.158;2022-07-24T06:36:38;24.60;;;23.30;;
727;SDS011;347;48.780;9.158;2022-07-24T06:39:04;22.07;;;20.67;;
727;SDS011;347;48.780;9.158;2022-07-24T06:41:33;24.43;;;23.13;;
727;SDS011;347;48.780;9.158;2022-07-24T06:44:01;23.27;;;21.97;;
727;SDS011;347;48.780;9.158;2022-07-24T06:46:34;22.80;;;21.30;;
727;SDS011;347;48.780;9.158;2022-07-24T06:49:00;22.73;;;21.43;;
727;SDS011;347;48.780;9.158;2022-07-24T06:51:28;22.20;;;20.90;;
727;SDS011;347;48.780;9.158;2022-07-24T06:53:57;24.30;;;22.70;;
727;SDS011;347;48.780;9.158;2022-07-24T06:56:22;24.33;;;23.03;;
727;SDS011;347;48.780;9.158;2022-07-24T06:58:48;22.87;;;21.57;;
727;SDS011;347;48.780;9.158;2022-07-24T07:01:14;23.50;;;22.20;;
727;SDS011;347;48.780;9.158;2022-07-24T07:03:40;22.70;;;21.40;;
727;SDS011;347;48.780;9.158;2022-07-24T07:06:07;22.03;;;20.77;;
727;SDS011;347;48.780;9.158;2022-07-24T07:08:33;21.97;;;20.67;;
727;SDS011;347;48.780;9.158;2022-07-24T07:11:02;22.77;;;21.33;;
727;SDS011;347;48.780;9.158;2022-07-24T07:13:36;22.37;;;20.97;;
727;SDS011;347;48.780;9.158;2022-07-24T07:16:02;21.83;;;20.53;;
727;SDS011;347;48.780;9.158;2022-07-24T07:18:28;21.70;;;20.50;;
727;SDS011;347;48.780;9.158;2022-07-24T07:21:03;22.67;;;21.57;;
727;SDS011;347;48.780;9.158;2022-07-24T07:23:36;23.63;;;22.17;;
727;SDS011;347;48.780;9.158;2022-07-24T07:26:05;24.37;;;23.03;;
727;SDS011;347;48.780;9.158;2022-07-24T07:28:34;24.10;;;22.80;;
727;SDS011;347;48.780;9.158;2022-07-24T07:31:09;23.80;;;22.30;;
727;SDS011;347;48.780;9.158;2022-07-24T07:33:38;24.90;;;23.60;;
727;SDS011;347;48.780;9.158;2022-07-24T07:36:04;23.03;;;21.53;;
727;SDS011;347;48.780;9.158;2022-07-24T07:38:29;23.03;;;21.77;;
727;SDS011;347;48.780;9.158;2022-07-24T07:40:55;23.27;;;21.87;;
727;SDS011;347;48.780;9.158;2022-07-24T07:43:21;25.37;;;23.37;;
727;SDS011;347;48.780;9.158;2022-07-24T07:45:47;23.97;;;22.27;;
727;SDS011;347;48.780;9.158;2022-07-24T07:48:13;24.47;;;23.17;;
727;SDS011;347;48.780;9.158;2022-07-24T07:50:38;24.17;;;22.77;;
727;SDS011;347;48.780;9.158;2022-07-24T07:53:04;23.03;;;21.73;;
727;SDS011;347;48.780;9.158;2022-07-24T07:55:39;23.60;;;21.97;;
727;SDS011;347;48.780;9.158;2022-07-24T07:58:05;23.23;;;22.00;;
727;SDS011;347;48.780;9.158;2022-07-24T08:00:32;23.70;;;22.40;;
727;SDS011;347;48.780;9.158;2022-07-24T08:03:01;24.13;;;22.93;;
727;SDS011;347;48.780;9.158;2022-07-24T08:05:28;23.63;;;22.43;;
727;SDS011;347;48.780;9.158;2022-07-24T08:07:57;24.73;;;23.33;;
727;SDS011;347;48.780;9.158;2022-07-24T08:10:25;21.90;;;20.80;;
727;SDS011;347;48.780;9.158;2022-07-24T08:12:51;22.17;;;20.97;;
727;SDS011;347;48.780;9.158;2022-07-24T08:15:17;23.40;;;22.00;;
727;SDS011;347;48.780;9.158;2022-07-24T08:17:43;22.63;;;21.30;;
727;SDS011;347;48.780;9.158;2022-07-24T08:20:10;21.57;;;20.37;;
727;SDS011;347;48.780;9.158;2022-07-24T08:22:36;22.73;;;21.47;;
727;SDS011;347;48.780;9.158;2022-07-24T08:25:02;20.97;;;19.87;;
727;SDS011;347;48.780;9.158;2022-07-24T08:27:28;21.47;;;20.17;;
727;SDS011;347;48.780;9.158;2022-07-24T08:29:54;21.37;;;20.17;;
727;SDS011;347;48.780;9.158;2022-07-24T08:32:20;22.77;;;20.87;;
727;SDS011;347;48.780;9.158;2022-07-24T08:34:48;21.83;;;20.63;;
727;SDS011;347;48.780;9.158;2022-07-24T08:37:14;21.47;;;20.27;;
727;SDS011;347;48.780;9.158;2022-07-24T08:39:49;22.00;;;20.80;;
727;SDS011;347;48.780;9.158;2022-07-24T08:42:15;22.63;;;21.40;;
727;SDS011;347;48.780;9.158;2022-07-24T08:44:41;20.57;;;19.47;;
727;SDS011;347;48.780;9.158;2022-07-24T08:47:16;21.03;;;19.83;;
727;SDS011;347;48.780;9.158;2022-07-24T08:49:45;21.93;;;20.63;;
727;SDS011;347;48.780;9.158;2022-07-24T08:52:17;22.07;;;20.77;;
727;SDS011;347;48.780;9.158;2022-07-24T08:54:45;20.60;;;19.40;;
727;SDS011;347;48.780;9.158;2022-07-24T08:57:11;21.23;;;19.90;;
727;SDS011;347;48.780;9.158;2022-07-24T08:59:36;20.90;;;19.80;;
727;SDS011;347;48.780;9.158;2022-07-24T09:02:02;21.30;;;20.20;;
727;SDS011;347;48.780;9.158;2022-07-24T09:07:14;20.97;;;19.87;;
727;SDS011;347;48.780;9.158;2022-07-24T09:09:44;21.17;;;19.83;;
727;SDS011;347;48.780;9.158;2022-07-24T09:12:23;20.97;;;19.77;;
727;SDS011;347;48.780;9.158;2022-07-24T09:14:49;20.90;;;19.90;;
727;SDS011;347;48.780;9.158;2022-07-24T09:17:15;20.83;;;19.83;;
727;SDS011;347;48.780;9.158;2022-07-24T09:22:39;21.63;;;20.50;;
727;SDS011;347;48.780;9.158;2022-07-24T09:25:18;21.30;;;20.07;;
727;SDS011;347;48.780;9.158;2022-07-24T09:28:00;21.17;;;19.97;;
727;SDS011;347;48.780;9.158;2022-07-24T09:30:33;20.47;;;19.33;;
727;SDS011;347;48.780;9.158;2022-07-24T09:36:16;21.83;;;20.63;;
727;SDS011;347;48.780;9.158;2022-07-24T09:39:16;21.17;;;19.67;;
727;SDS011;347;48.780;9.158;2022-07-24T09:41:50;21.53;;;20.43;;
727;SDS011;347;48.780;9.158;2022-07-24T09:44:17;20.23;;;19.13;;
727;SDS011;347;48.780;9.158;2022-07-24T09:49:21;19.10;;;18.10;;
727;SDS011;347;48.780;9.158;2022-07-24T09:52:08;19.10;;;17.90;;
727;SDS011;347;48.780;9.158;2022-07-24T09:57:29;19.80;;;18.70;;
727;SDS011;347;48.780;9.158;2022-07-24T09:59:59;20.47;;;19.27;;
727;SDS011;347;48.780;9.158;2022-07-24T10:02:28;21.37;;;20.27;;
727;SDS011;347;48.780;9.158;2022-07-24T10:04:57;21.37;;;20.00;;
727;SDS011;347;48.780;9.158;2022-07-24T10:07:25;21.73;;;20.33;;
727;SDS011;347;48.780;9.158;2022-07-24T10:09:52;21.77;;;20.47;;
727;SDS011;347;48.780;9.158;2022-07-24T10:12:22;21.23;;;20.13;;
727;SDS011;347;48.780;9.158;2022-07-24T10:14:51;20.70;;;19.60;;
727;SDS011;347;48.780;9.158;2022-07-24T10:20:05;21.27;;;20.07;;
727;SDS011;347;48.780;9.158;2022-07-24T10:22:36;21.37;;;20.23;;
727;SDS011;347;48.780;9.158;2022-07-24T10:25:16;20.07;;;18.93;;
727;SDS011;347;48.780;9.158;2022-07-24T10:27:49;20.93;;;19.80;;
727;SDS011;347;48.780;9.158;2022-07-24T10:30:17;18.67;;;17.77;;
727;SDS011;347;48.780;9.158;2022-07-24T10:32:43;19.73;;;18.77;;
727;SDS011;347;48.780;9.158;2022-07-24T10:38:12;18.53;;;17.73;;
727;SDS011;347;48.780;9.158;2022-07-24T10:40:52;20.80;;;19.70;;
727;SDS011;347;48.780;9.158;2022-07-24T10:43:23;21.20;;;19.60;;
727;SDS011;347;48.780;9.158;2022-07-24T10:53:57;18.60;;;17.70;;
727;SDS011;347;48.780;9.158;2022-07-24T10:59:08;19.90;;;18.90;;
727;SDS011;347;48.780;9.158;2022-07-24T11:01:42;27.90;;;26.30;;
727;SDS011;347;48.780;9.158;2022-07-24T11:09:54;19.73;;;18.70;;
727;SDS011;347;48.780;9.158;2022-07-24T11:12:32;20.93;;;19.63;;
727;SDS011;347;48.780;9.158;2022-07-24T11:15:02;21.27;;;20.07;;
727;SDS011;347;48.780;9.158;2022-07-24T11:17:47;20.57;;;19.43;;
727;SDS011;347;48.780;9.158;2022-07-24T11:20:14;20.17;;;19.07;;
727;SDS011;347;48.780;9.158;2022-07-24T11:22:43;23.23;;;21.63;;
727;SDS011;347;48.780;9.158;2022-07-24T11:25:16;20.23;;;19.10;;
727;SDS011;347;48.780;9.158;2022-07-24T11:27:51;22.87;;;21.57;;
727;SDS011;347;48.780;9.158;2022-07-24T11:30:27;19.60;;;18.60;;
727;SDS011;347;48.780;9.158;2022-07-24T11:32:54;21.27;;;20.07;;
727;SDS011;347;48.780;9.158;2022-07-24T11:35:28;19.87;;;18.77;;
727;SDS011;347;48.780;9.158;2022-07-24T11:37:58;19.33;;;18.33;;
727;SDS011;347;48.780;9.158;2022-07-24T11:40:26;20.07;;;19.10;;
727;SDS011;347;48.780;9.158;2022-07-24T11:42:55;19.70;;;18.80;;
727;SDS011;347;48.780;9.158;2022-07-24T11:45:23;19.80;;;18.80;;
727;SDS011;347;48.780;9.158;2022-07-24T11:47:49;20.80;;;19.67;;
727;SDS011;347;48.780;9.158;2022-07-24T11:50:19;22.20;;;20.90;;
727;SDS011;347;48.780;9.158;2022-07-24T11:52:46;20.90;;;19.70;;
727;SDS011;347;48.780;9.158;2022-07-24T11:55:13;20.77;;;19.60;;
727;SDS011;347;48.780;9.158;2022-07-24T11:57:41;21.90;;;20.50;;
727;SDS011;347;48.780;9.158;2022-07-24T12:00:16;20.47;;;19.40;;
727;SDS011;347;48.780;9.158;2022-07-24T12:02:45;20.90;;;19.83;;
727;SDS011;347;48.780;9.158;2022-07-24T12:05:15;21.27;;;20.13;;
727;SDS011;347;48.780;9.158;2022-07-24T12:07:50;20.43;;;19.23;;
727;SDS011;347;48.780;9.158;2022-07-24T12:10:25;21.37;;;19.77;;
727;SDS011;347;48.780;9.158;2022-07-24T12:12:52;20.63;;;19.57;;
727;SDS011;347;48.780;9.158;2022-07-24T12:15:19;20.63;;;19.60;;
727;SDS011;347;48.780;9.158;2022-07-24T12:17:53;19.80;;;18.83;;
727;SDS011;347;48.780;9.158;2022-07-24T12:20:32;20.40;;;19.40;;
727;SDS011;347;48.780;9.158;2022-07-24T12:22:59;19.50;;;18.60;;
727;SDS011;347;48.780;9.158;2022-07-24T12:25:27;20.00;;;18.90;;
727;SDS011;347;48.780;9.158;2022-07-24T12:30:31;19.10;;;18.20;;
727;SDS011;347;48.780;9.158;2022-07-24T12:33:00;19.80;;;18.90;;
727;SDS011;347;48.780;9.158;2022-07-24T12:35:30;19.27;;;18.37;;
727;SDS011;347;48.780;9.158;2022-07-24T12:38:01;19.87;;;18.87;;
727;SDS011;347;48.780;9.158;2022-07-24T12:40:39;22.07;;;20.70;;
727;SDS011;347;48.780;9.158;2022-07-24T12:43:09;19.47;;;18.40;;
727;SDS011;347;48.780;9.158;2022-07-24T12:45:37;19.87;;;18.67;;
727;SDS011;347;48.780;9.158;2022-07-24T12:50:49;20.37;;;19.43;;
727;SDS011;347;48.780;9.158;2022-07-24T12:53:27;20.30;;;19.20;;
727;SDS011;347;48.780;9.158;2022-07-24T12:56:09;20.30;;;19.13;;
727;SDS011;347;48.780;9.158;2022-07-24T13:01:14;19.67;;;18.57;;
727;SDS011;347;48.780;9.158;2022-07-24T13:03:48;21.03;;;19.77;;
727;SDS011;347;48.780;9.158;2022-07-24T13:06:31;19.53;;;18.53;;
727;SDS011;347;48.780;9.158;2022-07-24T13:08:57;18.73;;;17.83;;
727;SDS011;347;48.780;9.158;2022-07-24T13:11:23;19.37;;;18.47;;
727;SDS011;347;48.780;9.158;2022-07-24T13:13:49;19.90;;;18.70;;
727;SDS011;347;48.780;9.158;2022-07-24T13:16:15;19.20;;;18.20;;
727;SDS011;347;48.780;9.158;2022-07-24T13:18:43;19.43;;;18.40;;
727;SDS011;347;48.780;9.158;2022-07-24T13:21:09;19.93;;;18.83;;
727;SDS011;347;48.780;9.158;2022-07-24T13:23:35;18.43;;;17.53;;
727;SDS011;347;48.780;9.158;2022-07-24T13:26:01;19.10;;;18.20;;
727;SDS011;347;48.780;9.158;2022-07-24T13:28:27;17.90;;;17.10;;
727;SDS011;347;48.780;9.158;2022-07-24T13:30:53;20.10;;;18.90;;
727;SDS011;347;48.780;9.158;2022-07-24T13:33:19;19.13;;;18.23;;
727;SDS011;347;48.780;9.158;2022-07-24T13:35:45;19.80;;;18.53;;
727;SDS011;347;48.780;9.158;2022-07-24T13:38:10;18.10;;;17.20;;
727;SDS011;347;48.780;9.158;2022-07-24T13:40:36;19.37;;;18.47;;
727;SDS011;347;48.780;9.158;2022-07-24T13:43:02;19.40;;;18.50;;
727;SDS011;347;48.780;9.158;2022-07-24T13:45:28;19.43;;;18.40;;
727;SDS011;347;48.780;9.158;2022-07-24T13:47:54;18.57;;;17.67;;
727;SDS011;347;48.780;9.158;2022-07-24T13:50:22;19.70;;;18.70;;
727;SDS011;347;48.780;9.158;2022-07-24T13:52:48;19.60;;;18.13;;
727;SDS011;347;48.780;9.158;2022-07-24T13:55:14;18.40;;;17.50;;
727;SDS011;347;48.780;9.158;2022-07-24T13:57:40;19.77;;;18.77;;
727;SDS011;347;48.780;9.158;2022-07-24T14:00:06;18.77;;;17.70;;
727;SDS011;347;48.780;9.158;2022-07-24T14:02:33;19.07;;;18.07;;
727;SDS011;347;48.780;9.158;2022-07-24T14:05:02;20.23;;;19.13;;
727;SDS011;347;48.780;9.158;2022-07-24T14:07:28;20.03;;;18.87;;
727;SDS011;347;48.780;9.158;2022-07-24T14:09:54;19.17;;;18.20;;
727;SDS011;347;48.780;9.158;2022-07-24T14:12:20;20.07;;;19.17;;
727;SDS011;347;48.780;9.158;2022-07-24T14:14:50;19.10;;;18.20;;
727;SDS011;347;48.780;9.158;2022-07-24T14:17:24;18.57;;;17.67;;
727;SDS011;347;48.780;9.158;2022-07-24T14:19:50;18.67;;;17.67;;
727;SDS011;347;48.780;9.158;2022-07-24T14:22:21;19.00;;;18.00;;
727;SDS011;347;48.780;9.158;2022-07-24T14:24:52;20.30;;;19.20;;
727;SDS011;347;48.780;9.158;2022-07-24T14:27:21;19.80;;;18.80;;
727;SDS011;347;48.780;9.158;2022-07-24T14:29:47;18.80;;;17.90;;
727;SDS011;347;48.780;9.158;2022-07-24T14:32:13;19.27;;;18.37;;
727;SDS011;347;48.780;9.158;2022-07-24T14:34:39;19.30;;;18.40;;
727;SDS011;347;48.780;9.158;2022-07-24T14:37:05;20.03;;;18.77;;
727;SDS011;347;48.780;9.158;2022-07-24T14:39:54;18.53;;;17.53;;
727;SDS011;347;48.780;9.158;2022-07-24T14:42:20;18.60;;;17.70;;
727;SDS011;347;48.780;9.158;2022-07-24T14:44:49;18.63;;;17.63;;
727;SDS011;347;48.780;9.158;2022-07-24T14:47:16;18.93;;;18.03;;
727;SDS011;347;48.780;9.158;2022-07-24T14:49:42;18.90;;;17.87;;
727;SDS011;347;48.780;9.158;2022-07-24T14:52:08;18.63;;;17.77;;
727;SDS011;347;48.780;9.158;2022-07-24T14:54:34;19.33;;;18.17;;
727;SDS011;347;48.780;9.158;2022-07-24T14:57:00;21.43;;;20.27;;
727;SDS011;347;48.780;9.158;2022-07-24T14:59:26;18.77;;;17.80;;
727;SDS011;347;48.780;9.158;2022-07-24T15:01:52;19.40;;;18.43;;
727;SDS011;347;48.780;9.158;2022-07-24T15:04:18;19.30;;;18.30;;
727;SDS011;347;48.780;9.158;2022-07-24T15:06:44;18.50;;;17.63;;
727;SDS011;347;48.780;9.158;2022-07-24T15:09:10;19.50;;;18.30;;
727;SDS011;347;48.780;9.158;2022-07-24T15:11:36;17.03;;;16.03;;
727;SDS011;347;48.780;9.158;2022-07-24T15:14:03;18.63;;;17.60;;
727;SDS011;347;48.780;9.158;2022-07-24T15:16:29;18.43;;;17.50;;
727;SDS011;347;48.780;9.158;2022-07-24T15:18:55;19.30;;;18.00;;
727;SDS011;347;48.780;9.158;2022-07-24T15:21:21;19.33;;;17.80;;
727;SDS011;347;48.780;9.158;2022-07-24T15:23:47;18.50;;;17.53;;
727;SDS011;347;48.780;9.158;2022-07-24T15:26:12;18.77;;;17.80;;
727;SDS011;347;48.780;9.158;2022-07-24T15:28:41;19.90;;;18.80;;
727;SDS011;347;48.780;9.158;2022-07-24T15:31:16;19.17;;;18.17;;
727;SDS011;347;48.780;9.158;2022-07-24T15:33:45;19.93;;;18.73;;
727;SDS011;347;48.780;9.158;2022-07-24T15:36:11;18.50;;;17.60;;
727;SDS011;347;48.780;9.158;2022-07-24T15:38:37;18.20;;;17.40;;
727;SDS011;347;48.780;9.158;2022-07-24T15:41:03;18.20;;;17.20;;
727;SDS011;347;48.780;9.158;2022-07-24T15:43:30;19.00;;;18.00;;
727;SDS011;347;48.780;9.158;2022-07-24T15:45:56;19.40;;;18.27;;
727;SDS011;347;48.780;9.158;2022-07-24T15:48:22;19.03;;;18.03;;
727;SDS011;347;48.780;9.158;2022-07-24T15:50:48;18.50;;;17.63;;
727;SDS011;347;48.780;9.158;2022-07-24T15:53:14;18.43;;;17.30;;
727;SDS011;347;48.780;9.158;2022-07-24T15:55:40;18.60;;;17.70;;
727;SDS011;347;48.780;9.158;2022-07-24T15:58:07;19.13;;;17.93;;
727;SDS011;347;48.780;9.158;2022-07-24T16:00:33;18.80;;;17.70;;
727;SDS011;347;48.780;9.158;2022-07-24T16:02:59;19.30;;;18.40;;